Hillsboro, Wisconsin
Current Conditions -  °F | °C
As of 3:15 AM on Monday 20 Oct 2014 (Local Time) from KC35 Reporting Station
Clear Clear  
Wind Chill: 45°   Ceiling: Unl
Heat Index: 45°   Visibility: 10mi
Dew Point: 42°   Wind: 0mph
Humidity: 91%   Direction: NA
Pressure: 29.78"   Gusts: NA
Location:  43.65°N, 90.34°W
Report Text: KC35 200815Z AUTO 00000KT 10SM CLR 07/06 A2978 RMK AO2 T00700057
Loading
Personal Weather Stations






























Interactive Weather Map
Tropical Storm Tracking
New forecast layout! Learn more

10-Day Weather Forecast

Advertisements
Track Severe Weather on mobile